createdAt,value
2023-05-01T00:00:05.677Z,22.29
2023-05-01T00:01:05.486Z,22.29
2023-05-01T00:02:05.490Z,22.30
2023-05-01T00:03:05.573Z,22.29
2023-05-01T00:04:05.641Z,22.28
2023-05-01T00:05:05.614Z,22.28
2023-05-01T00:06:05.598Z,22.28
2023-05-01T00:07:05.545Z,22.27
2023-05-01T00:08:05.545Z,22.27
2023-05-01T00:09:05.594Z,22.28
2023-05-01T00:10:05.592Z,22.27
2023-05-01T00:11:05.619Z,22.27
2023-05-01T00:12:05.620Z,22.27
2023-05-01T00:13:05.621Z,22.28
2023-05-01T00:14:05.650Z,22.26
2023-05-01T00:15:05.691Z,22.27
2023-05-01T00:16:05.758Z,22.27
2023-05-01T00:17:05.728Z,22.25
2023-05-01T00:18:05.750Z,22.26
2023-05-01T00:19:05.763Z,22.26
2023-05-01T00:20:05.763Z,22.26
2023-05-01T00:21:05.773Z,22.26
2023-05-01T00:22:05.768Z,22.26
2023-05-01T00:23:05.771Z,22.25
2023-05-01T00:24:05.803Z,22.25
2023-05-01T00:25:05.799Z,22.26
2023-05-01T00:26:05.810Z,22.25
2023-05-01T00:27:05.830Z,22.25
2023-05-01T00:28:05.804Z,22.24
2023-05-01T00:29:05.816Z,22.24
2023-05-01T00:30:05.892Z,22.24
2023-05-01T00:31:05.879Z,22.24
2023-05-01T00:32:05.945Z,22.24
2023-05-01T00:33:05.910Z,22.23
2023-05-01T00:34:05.866Z,22.23
2023-05-01T00:35:05.844Z,22.23
2023-05-01T00:36:05.843Z,22.24
2023-05-01T00:37:05.838Z,22.23
2023-05-01T00:38:05.818Z,22.23
2023-05-01T00:39:05.796Z,22.23
2023-05-01T00:40:05.769Z,22.23
2023-05-01T00:41:05.751Z,22.23
2023-05-01T00:42:06.456Z,22.22
2023-05-01T00:43:05.745Z,22.23
2023-05-01T00:44:05.738Z,22.23
2023-05-01T00:45:05.713Z,22.23
2023-05-01T00:46:05.817Z,22.23
2023-05-01T00:47:05.702Z,22.23
2023-05-01T00:48:05.711Z,22.22
2023-05-01T00:49:05.704Z,22.23
2023-05-01T00:50:05.671Z,22.22
2023-05-01T00:51:05.656Z,22.22
2023-05-01T00:52:05.654Z,22.22
2023-05-01T00:53:05.646Z,22.22
2023-05-01T00:54:05.644Z,22.22
2023-05-01T00:55:05.666Z,22.22
2023-05-01T00:56:05.629Z,22.22
2023-05-01T00:57:05.627Z,22.22
2023-05-01T00:58:05.671Z,22.23
2023-05-01T00:59:05.616Z,22.23
2023-05-01T01:00:05.602Z,22.23
2023-05-01T01:01:05.656Z,22.22
2023-05-01T01:02:05.594Z,22.22
2023-05-01T01:03:05.586Z,22.22
2023-05-01T01:04:05.612Z,22.22
2023-05-01T01:05:05.558Z,22.23
2023-05-01T01:06:05.569Z,22.22
2023-05-01T01:07:05.540Z,22.22
2023-05-01T01:08:05.563Z,22.23
2023-05-01T01:09:05.531Z,22.23
2023-05-01T01:10:05.532Z,22.23
2023-05-01T01:11:05.503Z,22.23
2023-05-01T01:12:05.506Z,22.23
2023-05-01T01:13:05.501Z,22.22
2023-05-01T01:14:05.488Z,22.23
2023-05-01T01:15:05.483Z,22.23
2023-05-01T01:16:05.475Z,22.23
2023-05-01T01:17:05.507Z,22.23
2023-05-01T01:18:05.573Z,22.23
2023-05-01T01:19:05.508Z,22.23
2023-05-01T01:20:05.540Z,22.22
2023-05-01T01:21:05.604Z,22.22
2023-05-01T01:22:05.552Z,22.22
2023-05-01T01:23:05.575Z,22.22
2023-05-01T01:24:05.616Z,22.22
2023-05-01T01:25:05.610Z,22.23
2023-05-01T01:26:05.612Z,22.23
2023-05-01T01:27:05.630Z,22.23
2023-05-01T01:28:05.643Z,22.23
2023-05-01T01:29:05.650Z,22.23
2023-05-01T01:30:05.663Z,22.23
2023-05-01T01:31:05.719Z,22.23
2023-05-01T01:32:05.695Z,22.22
2023-05-01T01:33:05.731Z,22.23
2023-05-01T01:34:05.692Z,22.23
2023-05-01T01:35:05.722Z,22.22
2023-05-01T01:36:05.742Z,22.23
2023-05-01T01:37:05.755Z,22.23
2023-05-01T01:38:05.775Z,22.23
2023-05-01T01:39:05.786Z,22.24
2023-05-01T01:40:05.798Z,22.23
2023-05-01T01:41:05.843Z,22.24
2023-05-01T01:42:05.826Z,22.24
2023-05-01T01:43:05.845Z,22.23
2023-05-01T01:44:05.882Z,22.24
2023-05-01T01:45:05.898Z,22.25
2023-05-01T01:46:05.934Z,22.25
2023-05-01T01:47:05.921Z,22.25
2023-05-01T01:48:05.986Z,22.26
2023-05-01T01:49:05.936Z,22.26
2023-05-01T01:50:05.968Z,22.26
2023-05-01T01:51:05.971Z,22.26
2023-05-01T01:52:06.071Z,22.26
2023-05-01T01:53:05.968Z,22.26
2023-05-01T01:54:06.028Z,22.26
2023-05-01T01:55:06.007Z,22.27
2023-05-01T01:56:05.966Z,22.26
2023-05-01T01:57:05.972Z,22.25
2023-05-01T01:58:05.953Z,22.26
2023-05-01T01:59:06.034Z,22.26
2023-05-01T02:00:05.940Z,22.25
2023-05-01T02:01:05.959Z,22.26
2023-05-01T02:02:05.990Z,22.26
2023-05-01T02:03:06.080Z,22.26
2023-05-01T02:04:05.988Z,22.27
2023-05-01T02:05:05.931Z,22.26
2023-05-01T02:06:06.006Z,22.26
2023-05-01T02:07:05.985Z,22.26
2023-05-01T02:08:06.019Z,22.26
2023-05-01T02:09:06.005Z,22.27
2023-05-01T02:10:06.035Z,22.26
2023-05-01T02:11:06.030Z,22.27
2023-05-01T02:12:06.029Z,22.26
2023-05-01T02:13:06.045Z,22.26
2023-05-01T02:14:06.076Z,22.26
2023-05-01T02:15:06.079Z,22.26
2023-05-01T02:16:06.107Z,22.26
2023-05-01T02:17:06.088Z,22.26
2023-05-01T02:18:06.143Z,22.26
2023-05-01T02:19:06.107Z,22.26
2023-05-01T02:20:06.116Z,22.26
2023-05-01T02:21:06.136Z,22.26
2023-05-01T02:22:06.152Z,22.25
2023-05-01T02:23:06.149Z,22.25
2023-05-01T02:24:06.154Z,22.25
2023-05-01T02:25:06.174Z,22.25
2023-05-01T02:26:06.166Z,22.24
2023-05-01T02:27:06.189Z,22.24
2023-05-01T02:28:06.208Z,22.25
2023-05-01T02:29:06.251Z,22.24
2023-05-01T02:30:06.248Z,22.23
2023-05-01T02:31:06.295Z,22.23
2023-05-01T02:32:06.355Z,22.24
2023-05-01T02:33:06.315Z,22.22
2023-05-01T02:34:06.271Z,22.23
2023-05-01T02:35:06.304Z,22.23
2023-05-01T02:36:06.346Z,22.23
2023-05-01T02:37:06.332Z,22.23
2023-05-01T02:38:06.341Z,22.22
2023-05-01T02:39:06.346Z,22.23
2023-05-01T02:40:06.383Z,22.23
2023-05-01T02:41:06.366Z,22.23
2023-05-01T02:42:06.396Z,22.22
2023-05-01T02:43:06.371Z,22.22
2023-05-01T02:44:06.385Z,22.22
2023-05-01T02:45:06.427Z,22.22
2023-05-01T02:46:06.546Z,22.21
2023-05-01T02:47:06.448Z,22.22
2023-05-01T02:48:06.497Z,22.21
2023-05-01T02:49:06.471Z,22.21
2023-05-01T02:50:06.476Z,22.21
2023-05-01T02:51:06.504Z,22.21
2023-05-01T02:52:06.500Z,22.20
2023-05-01T02:53:06.524Z,22.20
2023-05-01T02:54:06.536Z,22.20
2023-05-01T02:55:06.558Z,22.20
2023-05-01T02:56:06.574Z,22.19
2023-05-01T02:57:06.616Z,22.18
2023-05-01T02:58:06.617Z,22.19
2023-05-01T02:59:06.637Z,22.18
2023-05-01T03:00:06.631Z,22.17
2023-05-01T03:01:06.711Z,22.17
2023-05-01T03:02:06.674Z,22.18
2023-05-01T03:03:06.738Z,22.17
2023-05-01T03:04:06.801Z,22.18
2023-05-01T03:05:06.735Z,22.17
2023-05-01T03:06:06.785Z,22.17
2023-05-01T03:07:06.787Z,22.17
2023-05-01T03:08:06.799Z,22.16
2023-05-01T03:09:06.828Z,22.17
2023-05-01T03:10:06.845Z,22.16
2023-05-01T03:11:06.848Z,22.17
2023-05-01T03:12:06.847Z,22.16
2023-05-01T03:13:06.848Z,22.17
2023-05-01T03:14:06.854Z,22.17
2023-05-01T03:15:06.883Z,22.16
2023-05-01T03:16:06.925Z,22.17
2023-05-01T03:17:06.919Z,22.16
2023-05-01T03:18:07.073Z,22.16
2023-05-01T03:19:06.911Z,22.16
2023-05-01T03:20:06.971Z,22.16
2023-05-01T03:21:06.990Z,22.16
2023-05-01T03:22:06.997Z,22.15
2023-05-01T03:23:07.037Z,22.15
2023-05-01T03:24:07.056Z,22.15
2023-05-01T03:25:07.082Z,22.14
2023-05-01T03:26:07.108Z,22.14
2023-05-01T03:27:07.110Z,22.14
2023-05-01T03:28:07.147Z,22.14
2023-05-01T03:29:07.116Z,22.12
2023-05-01T03:30:07.130Z,22.12
2023-05-01T03:31:07.135Z,22.14
2023-05-01T03:32:07.148Z,22.13
2023-05-01T03:33:07.177Z,22.12
2023-05-01T03:34:07.116Z,22.12
2023-05-01T03:35:07.130Z,22.12
2023-05-01T03:36:07.162Z,22.12
2023-05-01T03:37:07.227Z,22.12
2023-05-01T03:38:07.153Z,22.12
2023-05-01T03:39:07.149Z,22.13
2023-05-01T03:40:07.148Z,22.11
2023-05-01T03:41:07.525Z,22.11
2023-05-01T03:42:07.187Z,22.11
2023-05-01T03:43:07.189Z,22.11
2023-05-01T03:44:07.198Z,22.10
2023-05-01T03:45:07.220Z,22.11
2023-05-01T03:46:07.254Z,22.11
2023-05-01T03:47:07.235Z,22.11
2023-05-01T03:48:07.293Z,22.10
2023-05-01T03:49:07.253Z,22.11
2023-05-01T03:50:07.267Z,22.11
2023-05-01T03:51:07.276Z,22.10
2023-05-01T03:52:07.270Z,22.11
2023-05-01T03:53:07.368Z,22.10
2023-05-01T03:54:07.276Z,22.10
2023-05-01T03:55:07.269Z,22.10
2023-05-01T03:56:07.281Z,22.10
2023-05-01T03:57:07.281Z,22.11
2023-05-01T03:58:07.261Z,22.10
2023-05-01T03:59:07.260Z,22.10
2023-05-01T04:00:07.261Z,22.10
2023-05-01T04:01:07.281Z,22.10
2023-05-01T04:02:07.363Z,22.09
2023-05-01T04:03:07.330Z,22.10
2023-05-01T04:04:07.363Z,22.10
2023-05-01T04:05:07.374Z,22.10
2023-05-01T04:06:07.382Z,22.10
2023-05-01T04:07:07.347Z,22.09
2023-05-01T04:08:07.314Z,22.10
2023-05-01T04:09:07.573Z,22.09
2023-05-01T04:10:07.351Z,22.11
2023-05-01T04:11:07.347Z,22.10
2023-05-01T04:12:07.369Z,22.10
2023-05-01T04:13:07.374Z,22.10
2023-05-01T04:14:07.391Z,22.11
2023-05-01T04:15:07.392Z,22.11
2023-05-01T04:16:07.412Z,22.11
2023-05-01T04:17:07.414Z,22.11
2023-05-01T04:18:07.507Z,22.12
2023-05-01T04:19:07.437Z,22.11
2023-05-01T04:20:07.466Z,22.11
2023-05-01T04:21:07.515Z,22.11
2023-05-01T04:22:07.481Z,22.11
2023-05-01T04:23:07.509Z,22.10
2023-05-01T04:24:07.550Z,22.11
2023-05-01T04:25:07.657Z,22.11
2023-05-01T04:26:07.502Z,22.11
2023-05-01T04:27:07.530Z,22.12
2023-05-01T04:28:07.616Z,22.12
2023-05-01T04:29:07.483Z,22.12
2023-05-01T04:30:07.493Z,22.12
2023-05-01T04:31:07.552Z,22.12
2023-05-01T04:32:07.574Z,22.13
2023-05-01T04:33:07.529Z,22.12
2023-05-01T04:34:07.485Z,22.14
2023-05-01T04:35:07.491Z,22.14
2023-05-01T04:36:07.521Z,22.13
2023-05-01T04:37:07.528Z,22.14
2023-05-01T04:38:07.560Z,22.14
2023-05-01T04:39:07.630Z,22.14
2023-05-01T04:40:08.616Z,22.14
2023-05-01T04:41:07.685Z,22.13
2023-05-01T04:42:07.606Z,22.14
2023-05-01T04:43:07.614Z,22.14
2023-05-01T04:44:07.609Z,22.15
2023-05-01T04:45:07.607Z,22.14
2023-05-01T04:46:07.711Z,22.14
2023-05-01T04:47:07.678Z,22.14
2023-05-01T04:48:07.674Z,22.15
2023-05-01T04:49:07.588Z,22.16
2023-05-01T04:50:07.578Z,22.15
2023-05-01T04:51:07.571Z,22.16
2023-05-01T04:52:07.582Z,22.16
2023-05-01T04:53:07.580Z,22.17
2023-05-01T04:54:07.576Z,22.17
2023-05-01T04:55:07.572Z,22.17
2023-05-01T04:56:07.580Z,22.17
2023-05-01T04:57:07.589Z,22.17
2023-05-01T04:58:07.582Z,22.17
2023-05-01T04:59:07.593Z,22.17
2023-05-01T05:00:07.589Z,22.18
2023-05-01T05:01:07.612Z,22.18
2023-05-01T05:02:07.623Z,22.17
2023-05-01T05:03:07.661Z,22.18
2023-05-01T05:04:07.692Z,22.18
2023-05-01T05:05:07.585Z,22.18
2023-05-01T05:06:07.649Z,22.18
2023-05-01T05:07:07.634Z,22.19
2023-05-01T05:08:07.591Z,22.19
2023-05-01T05:09:07.613Z,22.19
2023-05-01T05:10:07.657Z,22.19
2023-05-01T05:11:07.607Z,22.20
2023-05-01T05:12:07.603Z,22.20
2023-05-01T05:13:07.580Z,22.20
2023-05-01T05:14:07.575Z,22.21
2023-05-01T05:15:07.589Z,22.21
2023-05-01T05:16:07.614Z,22.21
2023-05-01T05:17:07.584Z,22.21
2023-05-01T05:18:07.767Z,22.21
2023-05-01T05:19:07.598Z,22.21
2023-05-01T05:20:07.572Z,22.21
2023-05-01T05:21:07.641Z,22.21
2023-05-01T05:22:07.615Z,22.22
2023-05-01T05:23:08.613Z,22.22
2023-05-01T05:24:07.610Z,22.23
2023-05-01T05:25:07.572Z,22.22
2023-05-01T05:26:07.584Z,22.22
2023-05-01T05:27:07.577Z,22.22
2023-05-01T05:28:07.585Z,22.22
2023-05-01T05:29:07.579Z,22.22
2023-05-01T05:30:07.639Z,22.22
2023-05-01T05:31:07.657Z,22.22
2023-05-01T05:32:07.677Z,22.23
2023-05-01T05:33:07.719Z,22.22
2023-05-01T05:34:07.608Z,22.23
2023-05-01T05:35:07.593Z,22.23
2023-05-01T05:36:07.585Z,22.23
2023-05-01T05:37:07.582Z,22.24
2023-05-01T05:38:07.575Z,22.24
2023-05-01T05:39:07.553Z,22.24
2023-05-01T05:40:07.583Z,22.24
2023-05-01T05:41:07.535Z,22.25
2023-05-01T05:42:07.526Z,22.25
2023-05-01T05:43:07.522Z,22.24
2023-05-01T05:44:07.522Z,22.25
2023-05-01T05:45:07.513Z,22.25
2023-05-01T05:46:07.547Z,22.25
2023-05-01T05:47:07.537Z,22.24
2023-05-01T05:48:07.542Z,22.25
2023-05-01T05:49:07.494Z,22.25
2023-05-01T05:50:07.504Z,22.24
2023-05-01T05:51:08.089Z,22.25
2023-05-01T05:52:07.478Z,22.25
2023-05-01T05:53:07.476Z,22.25
2023-05-01T05:54:07.492Z,22.25
2023-05-01T05:55:07.439Z,22.26
2023-05-01T05:56:07.473Z,22.26
2023-05-01T05:57:07.427Z,22.26
2023-05-01T05:58:07.414Z,22.26
2023-05-01T05:59:07.409Z,22.26
2023-05-01T06:00:07.485Z,22.27
2023-05-01T06:01:07.408Z,22.28
2023-05-01T06:02:07.449Z,22.28
2023-05-01T06:03:07.482Z,22.28
2023-05-01T06:04:07.385Z,22.28
2023-05-01T06:05:07.414Z,22.28
2023-05-01T06:06:07.468Z,22.28
2023-05-01T06:07:07.594Z,22.29
2023-05-01T06:08:07.401Z,22.28
2023-05-01T06:09:07.376Z,22.29
2023-05-01T06:10:07.349Z,22.29
2023-05-01T06:11:07.366Z,22.29
2023-05-01T06:12:07.357Z,22.29
2023-05-01T06:13:12.946Z,22.30
2023-05-01T06:14:08.335Z,22.28
2023-05-01T06:15:07.314Z,22.29
2023-05-01T06:16:07.398Z,22.31
2023-05-01T06:17:07.302Z,22.30
2023-05-01T06:18:07.366Z,22.30
2023-05-01T06:19:08.078Z,22.31
2023-05-01T06:20:09.094Z,22.32
2023-05-01T06:21:07.262Z,22.31
2023-05-01T06:22:07.310Z,22.31
2023-05-01T06:23:07.279Z,22.32
2023-05-01T06:24:07.282Z,22.33
2023-05-01T06:25:07.271Z,22.33
2023-05-01T06:26:07.261Z,22.32
2023-05-01T06:27:07.249Z,22.33
2023-05-01T06:28:07.325Z,22.34
2023-05-01T06:29:07.385Z,22.33
2023-05-01T06:30:07.335Z,22.33
2023-05-01T06:31:07.292Z,22.33
2023-05-01T06:32:07.271Z,22.33
2023-05-01T06:33:07.337Z,22.33
2023-05-01T06:34:07.258Z,22.33
2023-05-01T06:35:07.214Z,22.33
2023-05-01T06:36:07.213Z,22.34
2023-05-01T06:37:07.202Z,22.34
2023-05-01T06:38:07.282Z,22.34
2023-05-01T06:39:07.222Z,22.35
2023-05-01T06:40:07.187Z,22.34
2023-05-01T06:41:07.207Z,22.36
2023-05-01T06:42:07.192Z,22.36
2023-05-01T06:43:07.202Z,22.36
2023-05-01T06:44:07.191Z,22.37
2023-05-01T06:45:07.220Z,22.37
2023-05-01T06:46:07.264Z,22.37
2023-05-01T06:47:07.365Z,22.38
2023-05-01T06:48:07.324Z,22.39
2023-05-01T06:49:08.100Z,22.40
2023-05-01T06:50:07.273Z,22.40
2023-05-01T06:51:07.288Z,22.41
2023-05-01T06:52:07.339Z,22.44
2023-05-01T06:53:07.322Z,22.44
2023-05-01T06:54:07.330Z,22.45
2023-05-01T06:55:07.322Z,22.47
2023-05-01T06:56:07.352Z,22.46
2023-05-01T06:57:07.384Z,22.47
2023-05-01T06:58:16.581Z,22.47
2023-05-01T06:59:08.382Z,22.48
2023-05-01T07:00:07.381Z,22.50
2023-05-01T07:01:07.412Z,22.51
2023-05-01T07:02:07.391Z,22.52
2023-05-01T07:03:07.383Z,22.53
2023-05-01T07:04:07.338Z,22.53
2023-05-01T07:05:07.402Z,22.54
2023-05-01T07:06:07.366Z,22.55
2023-05-01T07:07:07.347Z,22.55
2023-05-01T07:08:07.416Z,22.55
2023-05-01T07:09:07.464Z,22.55
2023-05-01T07:10:07.580Z,22.56
2023-05-01T07:11:10.159Z,22.56
2023-05-01T07:12:07.761Z,22.55
2023-05-01T07:13:07.839Z,22.56
2023-05-01T07:14:07.881Z,22.55
2023-05-01T07:15:07.944Z,22.56
2023-05-01T07:16:08.045Z,22.55
2023-05-01T07:17:08.084Z,22.56
2023-05-01T07:18:08.293Z,22.56
2023-05-01T07:19:08.165Z,22.56
2023-05-01T07:20:08.243Z,22.57
2023-05-01T07:21:08.256Z,22.57
2023-05-01T07:22:08.293Z,22.57
2023-05-01T07:23:08.292Z,22.57
2023-05-01T07:24:08.372Z,22.57
2023-05-01T07:25:08.416Z,22.57
2023-05-01T07:26:08.472Z,22.57
2023-05-01T07:27:08.508Z,22.57
2023-05-01T07:28:08.571Z,22.58
2023-05-01T07:29:08.657Z,22.59
2023-05-01T07:30:08.719Z,22.60
2023-05-01T07:31:08.770Z,22.60
2023-05-01T07:32:08.827Z,22.60
2023-05-01T07:33:08.800Z,22.60
2023-05-01T07:34:08.756Z,22.60
2023-05-01T07:35:08.721Z,22.61
2023-05-01T07:36:08.736Z,22.61
2023-05-01T07:37:08.729Z,22.62
2023-05-01T07:38:08.699Z,22.61
2023-05-01T07:39:08.691Z,22.62
2023-05-01T07:40:08.738Z,22.61
2023-05-01T07:41:08.765Z,22.62
2023-05-01T07:42:08.890Z,22.62
2023-05-01T07:43:08.901Z,22.63
2023-05-01T07:44:08.980Z,22.63
2023-05-01T07:45:09.056Z,22.64
2023-05-01T07:46:09.081Z,22.64
2023-05-01T07:47:09.196Z,22.64
2023-05-01T07:48:09.292Z,22.65
2023-05-01T07:49:09.271Z,22.66
2023-05-01T07:50:09.387Z,22.66
2023-05-01T07:51:09.315Z,22.65
2023-05-01T07:52:09.319Z,22.65
2023-05-01T07:53:09.309Z,22.66
2023-05-01T07:54:09.309Z,22.65
2023-05-01T07:55:09.319Z,22.65
2023-05-01T07:56:09.297Z,22.65
2023-05-01T07:57:09.292Z,22.67
2023-05-01T07:58:09.254Z,22.67
2023-05-01T07:59:09.233Z,22.69
2023-05-01T08:00:09.238Z,22.68
2023-05-01T08:01:09.265Z,22.69
2023-05-01T08:02:09.317Z,22.69
2023-05-01T08:03:09.588Z,22.71
2023-05-01T08:04:09.451Z,22.71
2023-05-01T08:05:09.452Z,22.70
2023-05-01T08:06:09.555Z,22.69
2023-05-01T08:07:09.542Z,22.69
2023-05-01T08:08:09.644Z,22.69
2023-05-01T08:09:09.750Z,22.68
2023-05-01T08:10:09.721Z,22.68
2023-05-01T08:11:09.772Z,22.67
2023-05-01T08:12:09.825Z,22.66
2023-05-01T08:13:09.886Z,22.67
2023-05-01T08:14:09.945Z,22.67
2023-05-01T08:15:10.001Z,22.67
2023-05-01T08:16:10.166Z,22.67
2023-05-01T08:17:10.118Z,22.65
2023-05-01T08:18:10.221Z,22.66
2023-05-01T08:19:10.213Z,22.66
2023-05-01T08:20:10.304Z,22.65
2023-05-01T08:21:10.320Z,22.66
2023-05-01T08:22:10.390Z,22.65
2023-05-01T08:23:10.448Z,22.64
2023-05-01T08:24:10.486Z,22.64
2023-05-01T08:25:10.737Z,22.65
2023-05-01T08:26:10.603Z,22.65
2023-05-01T08:27:10.705Z,22.66
2023-05-01T08:28:10.706Z,22.65
2023-05-01T08:29:10.762Z,22.66
2023-05-01T08:30:10.832Z,22.65
2023-05-01T08:31:11.027Z,22.65
2023-05-01T08:32:10.920Z,22.65
2023-05-01T08:33:11.040Z,22.65
2023-05-01T08:34:11.048Z,22.65
2023-05-01T08:35:11.092Z,22.65
2023-05-01T08:36:11.166Z,22.66
2023-05-01T08:37:11.260Z,22.66
2023-05-01T08:38:11.300Z,22.66
2023-05-01T08:39:11.329Z,22.67
2023-05-01T08:40:11.511Z,22.68
2023-05-01T08:41:11.454Z,22.69
2023-05-01T08:42:11.529Z,22.71
2023-05-01T08:43:11.526Z,22.71
2023-05-01T08:44:13.139Z,22.71
2023-05-01T08:45:11.627Z,22.72
2023-05-01T08:46:11.698Z,22.71
2023-05-01T08:47:12.189Z,22.71
2023-05-01T08:48:11.988Z,22.71
2023-05-01T08:49:11.865Z,22.73
2023-05-01T08:50:12.011Z,22.72
2023-05-01T08:51:12.006Z,22.72
2023-05-01T08:52:11.930Z,22.73
2023-05-01T08:53:12.161Z,22.73
2023-05-01T08:54:11.970Z,22.74
2023-05-01T08:55:12.023Z,22.75
2023-05-01T08:56:12.076Z,22.75
2023-05-01T08:57:12.100Z,22.75
2023-05-01T08:58:12.166Z,22.75
2023-05-01T08:59:12.194Z,22.75
2023-05-01T09:00:12.229Z,22.76
2023-05-01T09:01:12.303Z,22.77
2023-05-01T09:02:12.568Z,22.78
2023-05-01T09:03:12.436Z,22.80
2023-05-01T09:04:12.455Z,22.80
2023-05-01T09:05:12.477Z,22.82
2023-05-01T09:06:12.547Z,22.83
2023-05-01T09:07:12.511Z,22.85
2023-05-01T09:08:12.548Z,22.86
2023-05-01T09:09:12.602Z,22.87
2023-05-01T09:10:12.622Z,22.86
2023-05-01T09:11:12.686Z,22.86
2023-05-01T09:12:12.710Z,22.88
2023-05-01T09:13:12.782Z,22.88
2023-05-01T09:14:12.786Z,22.88
2023-05-01T09:15:12.815Z,22.87
2023-05-01T09:16:12.883Z,22.86
2023-05-01T09:17:12.885Z,22.86
2023-05-01T09:18:12.995Z,22.86
2023-05-01T09:19:12.990Z,22.85
2023-05-01T09:20:13.021Z,22.85
2023-05-01T09:21:13.064Z,22.85
2023-05-01T09:22:13.103Z,22.85
2023-05-01T09:23:13.142Z,22.84
2023-05-01T09:24:13.173Z,22.84
2023-05-01T09:25:13.225Z,22.82
2023-05-01T09:26:13.278Z,22.82
2023-05-01T09:27:13.368Z,22.83
2023-05-01T09:28:13.393Z,22.83
2023-05-01T09:29:13.412Z,22.81
2023-05-01T09:30:13.448Z,22.81
2023-05-01T09:31:13.500Z,22.82
2023-05-01T09:32:13.681Z,22.83
2023-05-01T09:33:13.690Z,22.83
2023-05-01T09:34:13.605Z,22.82
2023-05-01T09:35:13.657Z,22.82
2023-05-01T09:36:13.683Z,22.83
2023-05-01T09:37:13.758Z,22.82
2023-05-01T09:38:13.786Z,22.83
2023-05-01T09:39:13.816Z,22.83
2023-05-01T09:40:13.954Z,22.82
2023-05-01T09:41:13.932Z,22.83
2023-05-01T09:42:13.957Z,22.82
2023-05-01T09:43:14.029Z,22.83
2023-05-01T09:44:14.042Z,22.83
2023-05-01T09:45:14.102Z,22.83
2023-05-01T09:46:14.176Z,22.83
2023-05-01T09:47:14.172Z,22.83
2023-05-01T09:48:14.214Z,22.83
2023-05-01T09:49:14.259Z,22.83
2023-05-01T09:50:14.297Z,22.83
2023-05-01T09:51:14.289Z,22.83
2023-05-01T09:52:14.289Z,22.83
2023-05-01T09:53:14.331Z,22.84
2023-05-01T09:54:14.264Z,22.84
2023-05-01T09:55:14.280Z,22.84
2023-05-01T09:56:14.261Z,22.84
2023-05-01T09:57:14.237Z,22.84
2023-05-01T09:58:14.240Z,22.84
2023-05-01T09:59:14.228Z,22.85
2023-05-01T10:00:14.234Z,22.85
2023-05-01T10:01:14.263Z,22.86
2023-05-01T10:02:14.268Z,22.87
2023-05-01T10:03:14.309Z,22.87
2023-05-01T10:04:14.249Z,22.87
2023-05-01T10:05:14.283Z,22.88
2023-05-01T10:06:14.377Z,22.88
2023-05-01T10:07:14.406Z,22.88
2023-05-01T10:08:14.455Z,22.88
2023-05-01T10:09:14.447Z,22.89
2023-05-01T10:10:14.485Z,22.89
2023-05-01T10:11:15.178Z,22.89
2023-05-01T10:12:14.592Z,22.89
2023-05-01T10:13:14.630Z,22.89
2023-05-01T10:14:14.732Z,22.88
2023-05-01T10:15:24.808Z,22.88
2023-05-01T10:16:15.738Z,22.87
2023-05-01T10:17:14.745Z,22.88
2023-05-01T10:18:14.764Z,22.89
2023-05-01T10:19:14.673Z,22.89
2023-05-01T10:20:14.654Z,22.89
2023-05-01T10:21:14.772Z,22.88
2023-05-01T10:22:14.655Z,22.88
2023-05-01T10:23:14.632Z,22.88
2023-05-01T10:24:14.607Z,22.88
2023-05-01T10:25:15.189Z,22.89
2023-05-01T10:26:14.746Z,22.89
2023-05-01T10:27:14.793Z,22.90
2023-05-01T10:28:14.716Z,22.90
2023-05-01T10:29:14.764Z,22.91
2023-05-01T10:30:14.822Z,22.90
2023-05-01T10:31:14.959Z,22.91
2023-05-01T10:32:14.900Z,22.90
2023-05-01T10:33:15.024Z,22.91
2023-05-01T10:34:15.017Z,22.90
2023-05-01T10:35:14.963Z,22.91
2023-05-01T10:36:14.969Z,22.91
2023-05-01T10:37:14.966Z,22.91
2023-05-01T10:38:14.961Z,22.91
2023-05-01T10:39:14.934Z,22.92
2023-05-01T10:40:14.904Z,22.92
2023-05-01T10:41:14.906Z,22.92
2023-05-01T10:42:14.913Z,22.92
2023-05-01T10:43:14.913Z,22.92
2023-05-01T10:44:14.878Z,22.92
2023-05-01T10:45:14.880Z,22.93
2023-05-01T10:46:14.925Z,22.93
2023-05-01T10:47:14.870Z,22.93
2023-05-01T10:48:14.849Z,22.93
2023-05-01T10:49:14.849Z,22.93
2023-05-01T10:50:14.877Z,22.93
2023-05-01T10:51:14.821Z,22.92
2023-05-01T10:52:14.818Z,22.92
2023-05-01T10:53:14.893Z,22.93
2023-05-01T10:54:14.792Z,22.92
2023-05-01T10:55:14.797Z,22.92
2023-05-01T10:56:14.827Z,22.91
2023-05-01T10:57:14.798Z,22.91
2023-05-01T10:58:14.840Z,22.91
2023-05-01T10:59:14.792Z,22.91
2023-05-01T11:00:14.848Z,22.92
2023-05-01T11:01:14.782Z,22.92
2023-05-01T11:02:14.790Z,22.92
2023-05-01T11:03:14.784Z,22.92
2023-05-01T11:04:14.731Z,22.92
2023-05-01T11:05:14.766Z,22.93
2023-05-01T11:06:14.829Z,22.93
2023-05-01T11:07:14.830Z,22.92
2023-05-01T11:08:14.697Z,22.92
2023-05-01T11:09:14.732Z,22.93
2023-05-01T11:10:14.746Z,22.94
2023-05-01T11:11:14.854Z,22.92
2023-05-01T11:12:14.822Z,22.92
2023-05-01T11:13:14.889Z,22.91
2023-05-01T11:14:15.703Z,22.90
2023-05-01T11:15:14.966Z,22.90
2023-05-01T11:16:15.056Z,22.91
2023-05-01T11:17:15.048Z,22.91
2023-05-01T11:18:15.040Z,22.90
2023-05-01T11:19:14.999Z,22.90
2023-05-01T11:20:15.000Z,22.89
2023-05-01T11:21:15.024Z,22.88
2023-05-01T11:22:14.967Z,22.89
2023-05-01T11:23:14.976Z,22.90
2023-05-01T11:24:14.944Z,22.92
2023-05-01T11:25:14.941Z,22.93
2023-05-01T11:26:14.936Z,22.92
2023-05-01T11:27:14.947Z,22.92
2023-05-01T11:28:14.947Z,22.94
2023-05-01T11:29:14.920Z,22.95
2023-05-01T11:30:14.917Z,22.96
2023-05-01T11:31:14.928Z,22.97
2023-05-01T11:32:15.025Z,22.98
2023-05-01T11:33:14.958Z,22.99
2023-05-01T11:34:14.888Z,22.99
2023-05-01T11:35:14.897Z,23.01
2023-05-01T11:36:14.922Z,23.01
2023-05-01T11:37:14.965Z,23.02
2023-05-01T11:38:14.992Z,23.03
2023-05-01T11:39:15.002Z,23.04
2023-05-01T11:40:15.048Z,23.05
2023-05-01T11:41:15.042Z,23.05
2023-05-01T11:42:15.216Z,23.06
2023-05-01T11:43:15.027Z,23.05
2023-05-01T11:44:15.003Z,23.07
2023-05-01T11:45:14.985Z,23.06
2023-05-01T11:46:15.053Z,23.06
2023-05-01T11:47:14.949Z,23.06
2023-05-01T11:48:14.981Z,23.07
2023-05-01T11:49:14.958Z,23.07
2023-05-01T11:50:14.923Z,23.08
2023-05-01T11:51:14.920Z,23.08
2023-05-01T11:52:14.915Z,23.08
2023-05-01T11:53:14.918Z,23.08
2023-05-01T11:54:15.774Z,23.07
2023-05-01T11:55:14.895Z,23.08
2023-05-01T11:56:25.377Z,23.09
2023-05-01T11:57:15.895Z,23.09
2023-05-01T11:58:14.873Z,23.11
2023-05-01T11:59:14.869Z,23.13
2023-05-01T12:00:14.850Z,23.13
2023-05-01T12:01:14.830Z,23.13
2023-05-01T12:02:14.872Z,23.14
2023-05-01T12:03:15.349Z,23.14
2023-05-01T12:04:14.863Z,23.15
2023-05-01T12:05:14.805Z,23.16
2023-05-01T12:06:14.869Z,23.15
2023-05-01T12:07:14.778Z,23.15
2023-05-01T12:08:14.768Z,23.15
2023-05-01T12:09:14.745Z,23.15
2023-05-01T12:10:14.741Z,23.15
2023-05-01T12:11:14.718Z,23.15
2023-05-01T12:12:14.707Z,23.16
2023-05-01T12:13:14.705Z,23.15
2023-05-01T12:14:14.686Z,23.16
2023-05-01T12:15:14.677Z,23.16
2023-05-01T12:16:14.655Z,23.17
2023-05-01T12:17:14.698Z,23.16
2023-05-01T12:18:14.766Z,23.17
2023-05-01T12:19:14.620Z,23.17
2023-05-01T12:20:14.595Z,23.17
2023-05-01T12:21:14.608Z,23.18
2023-05-01T12:22:14.641Z,23.18
2023-05-01T12:23:14.753Z,23.18
2023-05-01T12:24:14.665Z,23.19
2023-05-01T12:25:14.719Z,23.18
2023-05-01T12:26:14.732Z,23.19
2023-05-01T12:27:14.770Z,23.20
2023-05-01T12:28:14.795Z,23.20
2023-05-01T12:29:14.790Z,23.20
2023-05-01T12:30:14.818Z,23.19
2023-05-01T12:31:14.887Z,23.19
2023-05-01T12:32:14.842Z,23.20
2023-05-01T12:33:14.907Z,23.21
2023-05-01T12:34:14.970Z,23.20
2023-05-01T12:35:14.914Z,23.20
2023-05-01T12:36:14.920Z,23.20
2023-05-01T12:37:14.993Z,23.20
2023-05-01T12:38:14.997Z,23.21
2023-05-01T12:39:15.046Z,23.20
2023-05-01T12:40:16.762Z,23.21
2023-05-01T12:41:15.024Z,23.21
2023-05-01T12:42:15.044Z,23.20
2023-05-01T12:43:15.068Z,23.21
2023-05-01T12:44:15.066Z,23.21
2023-05-01T12:45:15.072Z,23.20
2023-05-01T12:46:15.175Z,23.21
2023-05-01T12:47:15.138Z,23.21
2023-05-01T12:48:15.217Z,23.21
2023-05-01T12:49:15.148Z,23.22
2023-05-01T12:50:15.145Z,23.22
2023-05-01T12:51:15.126Z,23.22
2023-05-01T12:52:15.134Z,23.22